sensor_id;sensor_type;location;lat;lon;timestamp;pressure;altitude;pressure_sealevel;temperature;humidity
59789;BME280;47353;51.614;5.530;2023-09-18T00:00:51;100500.88;;;18.43;100.00
59789;BME280;47353;51.614;5.530;2023-09-18T00:03:20;100494.47;;;18.43;100.00
59789;BME280;47353;51.614;5.530;2023-09-18T00:05:48;100479.13;;;18.40;100.00
59789;BME280;47353;51.614;5.530;2023-09-18T00:08:14;100480.63;;;18.38;100.00
59789;BME280;47353;51.614;5.530;2023-09-18T00:10:40;100470.25;;;18.38;100.00
59789;BME280;47353;51.614;5.530;2023-09-18T00:13:06;100465.44;;;18.39;100.00
59789;BME280;47353;51.614;5.530;2023-09-18T00:15:32;100471.22;;;18.34;100.00
59789;BME280;47353;51.614;5.530;2023-09-18T00:17:57;100467.59;;;18.33;100.00
59789;BME280;47353;51.614;5.530;2023-09-18T00:20:22;100469.44;;;18.29;100.00
59789;BME280;47353;51.614;5.530;2023-09-18T00:22:55;100465.81;;;18.28;100.00
59789;BME280;47353;51.614;5.530;2023-09-18T00:25:21;100456.06;;;18.26;100.00
59789;BME280;47353;51.614;5.530;2023-09-18T00:27:47;100454.59;;;18.28;100.00
59789;BME280;47353;51.614;5.530;2023-09-18T00:30:12;100447.66;;;18.26;100.00
59789;BME280;47353;51.614;5.530;2023-09-18T00:32:37;100438.28;;;18.31;100.00
59789;BME280;47353;51.614;5.530;2023-09-18T00:35:03;100435.81;;;18.29;100.00
59789;BME280;47353;51.614;5.530;2023-09-18T00:37:29;100431.69;;;18.26;100.00
59789;BME280;47353;51.614;5.530;2023-09-18T00:39:54;100432.38;;;18.23;100.00
59789;BME280;47353;51.614;5.530;2023-09-18T00:42:20;100420.00;;;18.24;100.00
59789;BME280;47353;51.614;5.530;2023-09-18T00:44:48;100417.53;;;18.23;100.00
59789;BME280;47353;51.614;5.530;2023-09-18T00:47:14;100420.00;;;18.24;100.00
59789;BME280;47353;51.614;5.530;2023-09-18T00:49:41;100407.31;;;18.27;100.00
59789;BME280;47353;51.614;5.530;2023-09-18T00:52:09;100398.41;;;18.25;100.00
59789;BME280;47353;51.614;5.530;2023-09-18T00:54:36;100392.47;;;18.26;100.00
59789;BME280;47353;51.614;5.530;2023-09-18T00:57:03;100397.56;;;18.24;100.00
59789;BME280;47353;51.614;5.530;2023-09-18T00:59:29;100403.06;;;18.21;100.00
59789;BME280;47353;51.614;5.530;2023-09-18T01:01:54;100392.81;;;18.25;100.00
59789;BME280;47353;51.614;5.530;2023-09-18T01:04:21;100383.56;;;18.24;100.00
59789;BME280;47353;51.614;5.530;2023-09-18T01:06:47;100379.97;;;18.24;100.00
59789;BME280;47353;51.614;5.530;2023-09-18T01:09:16;100379.63;;;18.25;100.00
59789;BME280;47353;51.614;5.530;2023-09-18T01:12:03;100356.53;;;18.28;100.00
59789;BME280;47353;51.614;5.530;2023-09-18T01:17:06;100340.56;;;18.29;100.00
59789;BME280;47353;51.614;5.530;2023-09-18T01:19:43;100351.06;;;18.32;100.00
59789;BME280;47353;51.614;5.530;2023-09-18T01:22:19;100343.00;;;18.31;100.00
59789;BME280;47353;51.614;5.530;2023-09-18T01:24:45;100334.56;;;18.39;100.00
59789;BME280;47353;51.614;5.530;2023-09-18T01:27:17;100329.59;;;18.36;100.00
59789;BME280;47353;51.614;5.530;2023-09-18T01:29:43;100334.72;;;18.34;100.00
59789;BME280;47353;51.614;5.530;2023-09-18T01:32:08;100336.72;;;18.34;100.00
59789;BME280;47353;51.614;5.530;2023-09-18T01:34:40;100337.88;;;18.33;100.00
59789;BME280;47353;51.614;5.530;2023-09-18T01:37:09;100329.31;;;18.38;100.00
59789;BME280;47353;51.614;5.530;2023-09-18T01:39:35;100332.59;;;18.40;100.00
59789;BME280;47353;51.614;5.530;2023-09-18T01:42:03;100332.59;;;18.40;100.00
59789;BME280;47353;51.614;5.530;2023-09-18T01:44:32;100340.66;;;18.41;100.00
59789;BME280;47353;51.614;5.530;2023-09-18T01:47:00;100335.66;;;18.47;100.00
59789;BME280;47353;51.614;5.530;2023-09-18T01:49:35;100343.38;;;18.50;100.00
59789;BME280;47353;51.614;5.530;2023-09-18T01:52:02;100342.00;;;18.56;100.00
59789;BME280;47353;51.614;5.530;2023-09-18T01:54:29;100340.53;;;18.58;100.00
59789;BME280;47353;51.614;5.530;2023-09-18T01:56:54;100340.28;;;18.63;100.00
59789;BME280;47353;51.614;5.530;2023-09-18T01:59:20;100333.88;;;18.63;100.00
59789;BME280;47353;51.614;5.530;2023-09-18T02:01:47;100330.19;;;18.71;100.00
59789;BME280;47353;51.614;5.530;2023-09-18T02:04:12;100338.72;;;18.74;100.00
59789;BME280;47353;51.614;5.530;2023-09-18T02:06:37;100336.41;;;18.76;100.00
59789;BME280;47353;51.614;5.530;2023-09-18T02:09:03;100332.56;;;18.81;100.00
59789;BME280;47353;51.614;5.530;2023-09-18T02:11:29;100338.66;;;18.83;100.00
59789;BME280;47353;51.614;5.530;2023-09-18T02:13:54;100333.50;;;18.85;100.00
59789;BME280;47353;51.614;5.530;2023-09-18T02:16:21;100335.97;;;18.86;100.00
59789;BME280;47353;51.614;5.530;2023-09-18T02:18:49;100322.78;;;18.87;100.00
59789;BME280;47353;51.614;5.530;2023-09-18T02:21:22;100319.84;;;18.83;100.00
59789;BME280;47353;51.614;5.530;2023-09-18T02:23:51;100310.13;;;18.81;100.00
59789;BME280;47353;51.614;5.530;2023-09-18T02:26:20;100303.34;;;18.82;100.00
59789;BME280;47353;51.614;5.530;2023-09-18T02:28:46;100310.88;;;18.90;100.00
59789;BME280;47353;51.614;5.530;2023-09-18T02:31:11;100310.88;;;18.90;100.00
59789;BME280;47353;51.614;5.530;2023-09-18T02:33:37;100302.59;;;18.93;100.00
59789;BME280;47353;51.614;5.530;2023-09-18T02:36:04;100301.56;;;18.98;100.00
59789;BME280;47353;51.614;5.530;2023-09-18T02:38:29;100288.69;;;18.97;100.00
59789;BME280;47353;51.614;5.530;2023-09-18T02:40:57;100280.28;;;18.97;100.00
59789;BME280;47353;51.614;5.530;2023-09-18T02:43:23;100270.56;;;18.94;100.00
59789;BME280;47353;51.614;5.530;2023-09-18T02:45:49;100253.16;;;18.89;100.00
59789;BME280;47353;51.614;5.530;2023-09-18T02:48:15;100233.25;;;18.82;100.00
59789;BME280;47353;51.614;5.530;2023-09-18T02:50:41;100240.38;;;18.79;100.00
59789;BME280;47353;51.614;5.530;2023-09-18T02:53:07;100239.69;;;18.82;100.00
59789;BME280;47353;51.614;5.530;2023-09-18T02:55:41;100238.63;;;18.87;100.00
59789;BME280;47353;51.614;5.530;2023-09-18T02:58:06;100238.63;;;18.87;100.00
59789;BME280;47353;51.614;5.530;2023-09-18T03:00:34;100235.34;;;18.85;100.00
59789;BME280;47353;51.614;5.530;2023-09-18T03:02:59;100231.84;;;18.88;100.00
59789;BME280;47353;51.614;5.530;2023-09-18T03:05:25;100233.50;;;18.89;100.00
59789;BME280;47353;51.614;5.530;2023-09-18T03:07:51;100226.03;;;18.93;100.00
59789;BME280;47353;51.614;5.530;2023-09-18T03:10:16;100231.28;;;18.94;100.00
59789;BME280;47353;51.614;5.530;2023-09-18T03:12:47;100232.94;;;18.95;100.00
59789;BME280;47353;51.614;5.530;2023-09-18T03:15:12;100236.22;;;18.97;100.00
59789;BME280;47353;51.614;5.530;2023-09-18T03:17:38;100237.88;;;18.98;100.00
59789;BME280;47353;51.614;5.530;2023-09-18T03:20:06;100221.38;;;18.97;100.00
59789;BME280;47353;51.614;5.530;2023-09-18T03:22:32;100217.41;;;18.98;100.00
59789;BME280;47353;51.614;5.530;2023-09-18T03:24:57;100218.69;;;19.00;100.00
59789;BME280;47353;51.614;5.530;2023-09-18T03:27:23;100213.06;;;19.00;100.00
59789;BME280;47353;51.614;5.530;2023-09-18T03:29:56;100220.34;;;19.01;100.00
59789;BME280;47353;51.614;5.530;2023-09-18T03:32:22;100215.66;;;19.05;100.00
59789;BME280;47353;51.614;5.530;2023-09-18T03:34:50;100215.19;;;19.03;100.00
59789;BME280;47353;51.614;5.530;2023-09-18T03:37:16;100231.66;;;19.05;100.00
59789;BME280;47353;51.614;5.530;2023-09-18T03:39:41;100232.84;;;19.04;100.00
59789;BME280;47353;51.614;5.530;2023-09-18T03:42:06;100230.97;;;19.08;100.00
59789;BME280;47353;51.614;5.530;2023-09-18T03:44:32;100216.59;;;19.09;100.00
59789;BME280;47353;51.614;5.530;2023-09-18T03:46:57;100230.97;;;19.08;100.00
59789;BME280;47353;51.614;5.530;2023-09-18T03:49:23;100242.19;;;19.08;100.00
59789;BME280;47353;51.614;5.530;2023-09-18T03:51:48;100238.81;;;19.14;100.00
59789;BME280;47353;51.614;5.530;2023-09-18T03:54:13;100232.06;;;19.15;100.00
59789;BME280;47353;51.614;5.530;2023-09-18T03:56:39;100239.16;;;19.13;100.00
59789;BME280;47353;51.614;5.530;2023-09-18T03:59:05;100220.56;;;19.08;100.00
59789;BME280;47353;51.614;5.530;2023-09-18T04:01:31;100230.03;;;19.16;100.00
59789;BME280;47353;51.614;5.530;2023-09-18T04:03:56;100225.25;;;19.16;100.00
59789;BME280;47353;51.614;5.530;2023-09-18T04:06:23;100207.59;;;19.16;100.00
59789;BME280;47353;51.614;5.530;2023-09-18T04:08:51;100210.19;;;19.21;100.00
59789;BME280;47353;51.614;5.530;2023-09-18T04:11:17;100211.72;;;19.18;100.00
59789;BME280;47353;51.614;5.530;2023-09-18T04:13:44;100235.09;;;19.22;100.00
59789;BME280;47353;51.614;5.530;2023-09-18T04:16:10;100241.28;;;19.16;100.00
59789;BME280;47353;51.614;5.530;2023-09-18T04:18:41;100230.66;;;19.21;100.00
59789;BME280;47353;51.614;5.530;2023-09-18T04:21:08;100248.41;;;19.25;100.00
59789;BME280;47353;51.614;5.530;2023-09-18T04:23:35;100261.91;;;19.32;100.00
59789;BME280;47353;51.614;5.530;2023-09-18T04:26:01;100247.88;;;19.32;100.00
59789;BME280;47353;51.614;5.530;2023-09-18T04:28:27;100233.84;;;19.32;100.00
59789;BME280;47353;51.614;5.530;2023-09-18T04:30:52;100218.06;;;19.27;100.00
59789;BME280;47353;51.614;5.530;2023-09-18T04:33:18;100215.84;;;19.33;100.00
59789;BME280;47353;51.614;5.530;2023-09-18T04:35:44;100220.53;;;19.29;100.00
59789;BME280;47353;51.614;5.530;2023-09-18T04:38:09;100214.75;;;19.25;100.00
59789;BME280;47353;51.614;5.530;2023-09-18T04:40:36;100201.78;;;19.21;100.00
59789;BME280;47353;51.614;5.530;2023-09-18T04:43:02;100206.56;;;19.20;100.00
59789;BME280;47353;51.614;5.530;2023-09-18T04:45:30;100199.66;;;19.18;100.00
59789;BME280;47353;51.614;5.530;2023-09-18T04:47:55;100182.00;;;19.17;100.00
59789;BME280;47353;51.614;5.530;2023-09-18T04:50:21;100172.31;;;19.15;100.00
59789;BME280;47353;51.614;5.530;2023-09-18T04:52:47;100164.13;;;19.10;100.00
59789;BME280;47353;51.614;5.530;2023-09-18T04:55:14;100146.00;;;19.07;100.00
59789;BME280;47353;51.614;5.530;2023-09-18T04:57:39;100149.25;;;19.09;100.00
59789;BME280;47353;51.614;5.530;2023-09-18T05:00:06;100145.53;;;19.05;100.00
59789;BME280;47353;51.614;5.530;2023-09-18T05:02:34;100140.63;;;19.02;100.00
59789;BME280;47353;51.614;5.530;2023-09-18T05:05:00;100140.50;;;18.99;100.00
59789;BME280;47353;51.614;5.530;2023-09-18T05:07:25;100142.84;;;18.97;100.00
59789;BME280;47353;51.614;5.530;2023-09-18T05:09:51;100147.50;;;18.93;100.00
59789;BME280;47353;51.614;5.530;2023-09-18T05:12:17;100128.00;;;18.84;100.00
59789;BME280;47353;51.614;5.530;2023-09-18T05:14:43;100137.69;;;18.87;100.00
59789;BME280;47353;51.614;5.530;2023-09-18T05:17:14;100145.63;;;18.85;100.00
59789;BME280;47353;51.614;5.530;2023-09-18T05:19:40;100139.31;;;18.88;100.00
59789;BME280;47353;51.614;5.530;2023-09-18T05:22:06;100138.38;;;18.84;100.00
59789;BME280;47353;51.614;5.530;2023-09-18T05:24:32;100144.91;;;18.88;100.00
59789;BME280;47353;51.614;5.530;2023-09-18T05:26:57;100142.72;;;18.93;100.00
59789;BME280;47353;51.614;5.530;2023-09-18T05:29:22;100144.47;;;18.86;100.00
59789;BME280;47353;51.614;5.530;2023-09-18T05:31:49;100163.50;;;18.80;100.00
59789;BME280;47353;51.614;5.530;2023-09-18T05:34:14;100173.22;;;18.83;100.00
59789;BME280;47353;51.614;5.530;2023-09-18T05:36:39;100169.00;;;18.77;100.00
59789;BME280;47353;51.614;5.530;2023-09-18T05:39:06;100173.91;;;18.80;100.00
59789;BME280;47353;51.614;5.530;2023-09-18T05:41:35;100166.28;;;18.80;100.00
59789;BME280;47353;51.614;5.530;2023-09-18T05:44:01;100150.88;;;18.86;100.00
59789;BME280;47353;51.614;5.530;2023-09-18T05:46:29;100169.16;;;18.92;100.00
59789;BME280;47353;51.614;5.530;2023-09-18T05:48:54;100158.28;;;18.91;100.00
59789;BME280;47353;51.614;5.530;2023-09-18T05:51:22;100165.16;;;18.93;100.00
59789;BME280;47353;51.614;5.530;2023-09-18T05:53:47;100181.16;;;18.93;100.00
59789;BME280;47353;51.614;5.530;2023-09-18T05:56:13;100188.44;;;18.94;100.00
59789;BME280;47353;51.614;5.530;2023-09-18T05:58:39;100181.63;;;18.95;100.00
59789;BME280;47353;51.614;5.530;2023-09-18T06:01:06;100196.00;;;18.93;100.00
59789;BME280;47353;51.614;5.530;2023-09-18T06:03:32;100188.19;;;18.99;100.00
59789;BME280;47353;51.614;5.530;2023-09-18T06:06:01;100186.91;;;18.96;100.00
59789;BME280;47353;51.614;5.530;2023-09-18T06:08:27;100184.78;;;18.93;100.00
59789;BME280;47353;51.614;5.530;2023-09-18T06:10:53;100193.56;;;18.92;100.00
59789;BME280;47353;51.614;5.530;2023-09-18T06:13:20;100206.88;;;18.95;100.00
59789;BME280;47353;51.614;5.530;2023-09-18T06:15:46;100210.97;;;18.97;100.00
59789;BME280;47353;51.614;5.530;2023-09-18T06:18:11;100208.75;;;18.91;100.00
59789;BME280;47353;51.614;5.530;2023-09-18T06:20:37;100213.66;;;18.94;100.00
59789;BME280;47353;51.614;5.530;2023-09-18T06:23:02;100213.66;;;18.94;100.00
59789;BME280;47353;51.614;5.530;2023-09-18T06:25:29;100214.81;;;18.93;100.00
59789;BME280;47353;51.614;5.530;2023-09-18T06:27:56;100208.06;;;18.94;100.00
59789;BME280;47353;51.614;5.530;2023-09-18T06:30:22;100211.88;;;18.89;100.00
59789;BME280;47353;51.614;5.530;2023-09-18T06:32:47;100218.31;;;18.90;100.00
59789;BME280;47353;51.614;5.530;2023-09-18T06:35:13;100220.28;;;18.89;100.00
59789;BME280;47353;51.614;5.530;2023-09-18T06:37:38;100221.47;;;18.88;100.00
59789;BME280;47353;51.614;5.530;2023-09-18T06:40:04;100216.69;;;18.89;100.00
59789;BME280;47353;51.614;5.530;2023-09-18T06:42:31;100221.59;;;18.92;100.00
59789;BME280;47353;51.614;5.530;2023-09-18T06:44:56;100233.16;;;18.90;100.00
59789;BME280;47353;51.614;5.530;2023-09-18T06:47:22;100245.44;;;18.98;100.00
59789;BME280;47353;51.614;5.530;2023-09-18T06:49:49;100239.63;;;19.03;100.00
59789;BME280;47353;51.614;5.530;2023-09-18T06:52:15;100251.66;;;19.03;100.00
59789;BME280;47353;51.614;5.530;2023-09-18T06:54:40;100254.38;;;19.12;100.00
59789;BME280;47353;51.614;5.530;2023-09-18T06:57:06;100248.28;;;19.10;100.00
59789;BME280;47353;51.614;5.530;2023-09-18T06:59:31;100252.50;;;19.16;100.00
59789;BME280;47353;51.614;5.530;2023-09-18T07:02:00;100254.59;;;19.19;100.00
59789;BME280;47353;51.614;5.530;2023-09-18T07:04:25;100256.34;;;19.23;100.00
59789;BME280;47353;51.614;5.530;2023-09-18T07:06:51;100260.16;;;19.27;100.00
59789;BME280;47353;51.614;5.530;2023-09-18T07:09:19;100265.78;;;19.27;100.00
59789;BME280;47353;51.614;5.530;2023-09-18T07:11:44;100258.97;;;19.28;100.00
59789;BME280;47353;51.614;5.530;2023-09-18T07:14:10;100245.25;;;19.27;100.00
59789;BME280;47353;51.614;5.530;2023-09-18T07:16:35;100253.81;;;19.18;100.00
59789;BME280;47353;51.614;5.530;2023-09-18T07:19:01;100254.03;;;19.25;100.00
59789;BME280;47353;51.614;5.530;2023-09-18T07:21:31;100259.47;;;19.30;100.00
59789;BME280;47353;51.614;5.530;2023-09-18T07:23:56;100270.69;;;19.30;100.00
59789;BME280;47353;51.614;5.530;2023-09-18T07:26:22;100267.94;;;19.22;100.00
59789;BME280;47353;51.614;5.530;2023-09-18T07:28:47;100270.75;;;19.22;100.00
59789;BME280;47353;51.614;5.530;2023-09-18T07:31:13;100272.41;;;19.23;100.00
59789;BME280;47353;51.614;5.530;2023-09-18T07:33:40;100276.84;;;19.24;100.00
59789;BME280;47353;51.614;5.530;2023-09-18T07:36:06;100271.16;;;19.32;100.00
59789;BME280;47353;51.614;5.530;2023-09-18T07:38:31;100274.91;;;19.36;100.00
59789;BME280;47353;51.614;5.530;2023-09-18T07:40:58;100271.88;;;19.41;100.00
59789;BME280;47353;51.614;5.530;2023-09-18T07:43:24;100275.25;;;19.59;100.00
59789;BME280;47353;51.614;5.530;2023-09-18T07:45:50;100271.66;;;19.58;100.00
59789;BME280;47353;51.614;5.530;2023-09-18T07:48:16;100273.38;;;19.51;100.00
59789;BME280;47353;51.614;5.530;2023-09-18T07:50:45;100266.75;;;19.55;100.00
59789;BME280;47353;51.614;5.530;2023-09-18T07:53:11;100281.47;;;19.64;100.00
59789;BME280;47353;51.614;5.530;2023-09-18T07:55:36;100278.75;;;19.68;100.00
59789;BME280;47353;51.614;5.530;2023-09-18T07:58:01;100282.88;;;19.70;100.00
59789;BME280;47353;51.614;5.530;2023-09-18T08:00:28;100282.41;;;19.80;100.00
59789;BME280;47353;51.614;5.530;2023-09-18T08:02:55;100269.88;;;19.78;100.00
59789;BME280;47353;51.614;5.530;2023-09-18T08:05:28;100282.41;;;19.80;100.00
59789;BME280;47353;51.614;5.530;2023-09-18T08:07:55;100274.78;;;19.81;100.00
59789;BME280;47353;51.614;5.530;2023-09-18T08:10:22;100273.16;;;19.80;100.00
59789;BME280;47353;51.614;5.530;2023-09-18T08:12:48;100273.53;;;19.78;100.00
59789;BME280;47353;51.614;5.530;2023-09-18T08:15:15;100271.16;;;19.80;100.00
59789;BME280;47353;51.614;5.530;2023-09-18T08:17:40;100266.72;;;19.92;100.00
59789;BME280;47353;51.614;5.530;2023-09-18T08:20:07;100275.03;;;19.76;100.00
59789;BME280;47353;51.614;5.530;2023-09-18T08:22:38;100276.66;;;19.89;100.00
59789;BME280;47353;51.614;5.530;2023-09-18T08:25:05;100289.84;;;20.13;100.00
59789;BME280;47353;51.614;5.530;2023-09-18T08:27:33;100297.25;;;20.69;100.00
59789;BME280;47353;51.614;5.530;2023-09-18T08:29:58;100298.50;;;21.11;100.00
59789;BME280;47353;51.614;5.530;2023-09-18T08:32:24;100303.34;;;21.41;98.70
59789;BME280;47353;51.614;5.530;2023-09-18T08:34:49;100298.72;;;21.96;97.12
59789;BME280;47353;51.614;5.530;2023-09-18T08:37:15;100308.50;;;22.17;93.59
59789;BME280;47353;51.614;5.530;2023-09-18T08:39:40;100316.63;;;21.88;91.00
59789;BME280;47353;51.614;5.530;2023-09-18T08:42:07;100315.16;;;21.63;92.89
59789;BME280;47353;51.614;5.530;2023-09-18T08:44:36;100331.16;;;21.74;92.63
59789;BME280;47353;51.614;5.530;2023-09-18T08:47:05;100343.25;;;21.75;92.56
59789;BME280;47353;51.614;5.530;2023-09-18T08:49:32;100343.06;;;21.68;90.51
59789;BME280;47353;51.614;5.530;2023-09-18T08:51:59;100332.44;;;22.08;91.82
59789;BME280;47353;51.614;5.530;2023-09-18T08:54:25;100328.84;;;22.26;89.24
59789;BME280;47353;51.614;5.530;2023-09-18T08:56:51;100330.66;;;22.34;87.17
59789;BME280;47353;51.614;5.530;2023-09-18T08:59:17;100331.59;;;22.07;86.91
59789;BME280;47353;51.614;5.530;2023-09-18T09:01:45;100326.16;;;22.14;87.91
59789;BME280;47353;51.614;5.530;2023-09-18T09:04:11;100335.31;;;22.27;85.87
59789;BME280;47353;51.614;5.530;2023-09-18T09:06:36;100333.97;;;22.55;84.67
59789;BME280;47353;51.614;5.530;2023-09-18T09:09:02;100326.88;;;22.46;85.03
59789;BME280;47353;51.614;5.530;2023-09-18T09:11:28;100326.41;;;23.36;81.21
59789;BME280;47353;51.614;5.530;2023-09-18T09:16:47;100329.81;;;24.94;73.55
59789;BME280;47353;51.614;5.530;2023-09-18T09:19:15;100332.75;;;25.34;67.41
59789;BME280;47353;51.614;5.530;2023-09-18T09:21:41;100337.03;;;26.49;65.20
59789;BME280;47353;51.614;5.530;2023-09-18T09:24:09;100328.97;;;27.36;61.76
59789;BME280;47353;51.614;5.530;2023-09-18T09:26:42;100337.16;;;27.69;59.67
59789;BME280;47353;51.614;5.530;2023-09-18T09:29:19;100337.63;;;28.07;59.42
59789;BME280;47353;51.614;5.530;2023-09-18T09:31:45;100342.91;;;27.91;55.29
59789;BME280;47353;51.614;5.530;2023-09-18T09:34:12;100355.84;;;27.67;57.77
59789;BME280;47353;51.614;5.530;2023-09-18T09:36:51;100342.47;;;27.82;60.27
59789;BME280;47353;51.614;5.530;2023-09-18T09:39:17;100343.22;;;27.43;58.75
59789;BME280;47353;51.614;5.530;2023-09-18T09:41:47;100353.59;;;27.04;58.31
59789;BME280;47353;51.614;5.530;2023-09-18T09:44:14;100356.38;;;26.33;62.68
59789;BME280;47353;51.614;5.530;2023-09-18T09:46:47;100356.56;;;26.57;61.50
59789;BME280;47353;51.614;5.530;2023-09-18T09:49:13;100353.06;;;26.20;60.26
59789;BME280;47353;51.614;5.530;2023-09-18T09:51:41;100356.69;;;25.77;64.90
59789;BME280;47353;51.614;5.530;2023-09-18T09:54:07;100351.56;;;25.49;62.75
59789;BME280;47353;51.614;5.530;2023-09-18T09:59:09;100336.50;;;25.85;60.75
59789;BME280;47353;51.614;5.530;2023-09-18T10:01:37;100344.38;;;25.26;63.40
59789;BME280;47353;51.614;5.530;2023-09-18T10:04:10;100353.22;;;26.48;63.90
59789;BME280;47353;51.614;5.530;2023-09-18T10:06:37;100353.81;;;27.78;57.14
59789;BME280;47353;51.614;5.530;2023-09-18T10:09:04;100360.38;;;26.79;57.28
59789;BME280;47353;51.614;5.530;2023-09-18T10:11:34;100369.72;;;25.85;61.70
59789;BME280;47353;51.614;5.530;2023-09-18T10:14:08;100376.19;;;24.83;66.11
59789;BME280;47353;51.614;5.530;2023-09-18T10:16:36;100371.06;;;24.13;69.64
59789;BME280;47353;51.614;5.530;2023-09-18T10:22:06;100386.94;;;23.76;71.82
59789;BME280;47353;51.614;5.530;2023-09-18T10:24:39;100389.94;;;23.64;72.74
59789;BME280;47353;51.614;5.530;2023-09-18T10:27:06;100381.75;;;23.21;74.55
59789;BME280;47353;51.614;5.530;2023-09-18T10:29:36;100381.69;;;23.78;74.78
59789;BME280;47353;51.614;5.530;2023-09-18T10:32:03;100362.72;;;23.98;71.97
59789;BME280;47353;51.614;5.530;2023-09-18T10:34:30;100362.44;;;24.58;69.59
59789;BME280;47353;51.614;5.530;2023-09-18T10:36:56;100364.47;;;25.87;63.60
59789;BME280;47353;51.614;5.530;2023-09-18T10:39:26;100364.88;;;26.29;62.61
59789;BME280;47353;51.614;5.530;2023-09-18T10:41:53;100372.41;;;26.62;61.29
59789;BME280;47353;51.614;5.530;2023-09-18T10:44:19;100369.59;;;26.11;61.04
59789;BME280;47353;51.614;5.530;2023-09-18T10:46:49;100370.25;;;25.57;64.68
59789;BME280;47353;51.614;5.530;2023-09-18T10:49:17;100368.69;;;25.63;63.07
59789;BME280;47353;51.614;5.530;2023-09-18T10:51:44;100365.03;;;26.54;61.12
59789;BME280;47353;51.614;5.530;2023-09-18T10:54:15;100358.31;;;25.78;63.32
59789;BME280;47353;51.614;5.530;2023-09-18T10:56:43;100356.06;;;24.91;66.17
59789;BME280;47353;51.614;5.530;2023-09-18T10:59:09;100356.19;;;24.20;68.37
59789;BME280;47353;51.614;5.530;2023-09-18T11:01:35;100365.34;;;24.10;68.23
59789;BME280;47353;51.614;5.530;2023-09-18T11:04:05;100352.66;;;24.52;68.24
59789;BME280;47353;51.614;5.530;2023-09-18T11:09:23;100370.72;;;24.44;67.57
59789;BME280;47353;51.614;5.530;2023-09-18T11:12:09;100352.13;;;23.95;68.08
59789;BME280;47353;51.614;5.530;2023-09-18T11:17:34;100364.81;;;23.21;71.01
59789;BME280;47353;51.614;5.530;2023-09-18T11:22:47;100358.16;;;23.10;72.08
59789;BME280;47353;51.614;5.530;2023-09-18T11:25:35;100364.56;;;23.26;72.08
59789;BME280;47353;51.614;5.530;2023-09-18T11:28:03;100365.50;;;24.69;71.97
59789;BME280;47353;51.614;5.530;2023-09-18T11:30:29;100373.94;;;25.28;62.90
59789;BME280;47353;51.614;5.530;2023-09-18T11:32:55;100390.44;;;24.63;64.65
59789;BME280;47353;51.614;5.530;2023-09-18T11:35:22;100376.47;;;23.99;68.30
59789;BME280;47353;51.614;5.530;2023-09-18T11:38:03;100372.22;;;23.67;69.14
59789;BME280;47353;51.614;5.530;2023-09-18T11:40:33;100371.13;;;23.30;70.92
59789;BME280;47353;51.614;5.530;2023-09-18T11:45:53;100367.09;;;24.44;70.02
59789;BME280;47353;51.614;5.530;2023-09-18T11:48:20;100366.84;;;25.45;62.22
59789;BME280;47353;51.614;5.530;2023-09-18T11:50:47;100359.66;;;26.38;59.27
59789;BME280;47353;51.614;5.530;2023-09-18T11:53:17;100361.88;;;27.44;55.44
59789;BME280;47353;51.614;5.530;2023-09-18T11:55:45;100360.38;;;28.17;54.70
59789;BME280;47353;51.614;5.530;2023-09-18T11:58:11;100365.25;;;28.41;49.93
59789;BME280;47353;51.614;5.530;2023-09-18T12:00:38;100353.31;;;27.34;52.21
59789;BME280;47353;51.614;5.530;2023-09-18T12:03:22;100355.38;;;26.62;53.29
59789;BME280;47353;51.614;5.530;2023-09-18T12:06:00;100352.19;;;25.72;56.95
59789;BME280;47353;51.614;5.530;2023-09-18T12:08:28;100354.19;;;25.02;58.97
59789;BME280;47353;51.614;5.530;2023-09-18T12:10:55;100334.09;;;25.47;59.13
59789;BME280;47353;51.614;5.530;2023-09-18T12:13:21;100344.25;;;27.07;56.47
59789;BME280;47353;51.614;5.530;2023-09-18T12:15:56;100346.88;;;28.91;50.41
59789;BME280;47353;51.614;5.530;2023-09-18T12:18:22;100343.19;;;28.94;47.19
59789;BME280;47353;51.614;5.530;2023-09-18T12:20:50;100350.38;;;29.31;46.55
59789;BME280;47353;51.614;5.530;2023-09-18T12:23:16;100345.16;;;29.04;45.93
59789;BME280;47353;51.614;5.530;2023-09-18T12:25:47;100345.69;;;28.68;47.31
59789;BME280;47353;51.614;5.530;2023-09-18T12:28:13;100342.50;;;28.03;49.08
59789;BME280;47353;51.614;5.530;2023-09-18T12:30:40;100338.84;;;28.48;48.27
59789;BME280;47353;51.614;5.530;2023-09-18T12:33:05;100344.59;;;29.48;44.28
59789;BME280;47353;51.614;5.530;2023-09-18T12:35:31;100340.16;;;29.37;45.42
59789;BME280;47353;51.614;5.530;2023-09-18T12:37:59;100341.66;;;28.55;46.48
59789;BME280;47353;51.614;5.530;2023-09-18T12:40:30;100336.66;;;29.01;46.51
59789;BME280;47353;51.614;5.530;2023-09-18T12:42:58;100329.88;;;28.53;45.53
59789;BME280;47353;51.614;5.530;2023-09-18T12:45:25;100333.13;;;28.30;47.19
59789;BME280;47353;51.614;5.530;2023-09-18T12:47:50;100328.53;;;28.89;46.18
59789;BME280;47353;51.614;5.530;2023-09-18T12:50:16;100312.81;;;28.18;47.43
59789;BME280;47353;51.614;5.530;2023-09-18T12:52:42;100315.56;;;27.44;47.68
59789;BME280;47353;51.614;5.530;2023-09-18T12:55:08;100309.31;;;26.96;48.86
59789;BME280;47353;51.614;5.530;2023-09-18T12:57:34;100324.09;;;26.58;49.78
59789;BME280;47353;51.614;5.530;2023-09-18T12:59:59;100306.81;;;25.72;52.60
59789;BME280;47353;51.614;5.530;2023-09-18T13:02:35;100300.25;;;26.66;50.17
59789;BME280;47353;51.614;5.530;2023-09-18T13:05:01;100297.28;;;27.31;49.49